sensor_id;sensor_type;location;lat;lon;timestamp;pressure;altitude;pressure_sealevel;temperature;humidity
64889;BME280;51386;53.082;8.816;2024-01-25T00:00:02;102137.59;;;11.45;58.87
64889;BME280;51386;53.082;8.816;2024-01-25T00:02:31;102139.25;;;11.46;58.93
64889;BME280;51386;53.082;8.816;2024-01-25T00:04:59;102139.25;;;11.46;58.96
64889;BME280;51386;53.082;8.816;2024-01-25T00:07:28;102133.84;;;11.47;58.90
64889;BME280;51386;53.082;8.816;2024-01-25T00:09:57;102152.97;;;11.49;58.88
64889;BME280;51386;53.082;8.816;2024-01-25T00:12:26;102141.31;;;11.52;58.98
64889;BME280;51386;53.082;8.816;2024-01-25T00:14:54;102143.66;;;11.55;58.78
64889;BME280;51386;53.082;8.816;2024-01-25T00:17:23;102137.28;;;11.57;58.72
64889;BME280;51386;53.082;8.816;2024-01-25T00:19:51;102128.22;;;11.60;58.72
64889;BME280;51386;53.082;8.816;2024-01-25T00:22:20;102125.56;;;11.60;58.40
64889;BME280;51386;53.082;8.816;2024-01-25T00:24:48;102138.75;;;11.60;58.46
64889;BME280;51386;53.082;8.816;2024-01-25T00:27:17;102136.00;;;11.62;58.61
64889;BME280;51386;53.082;8.816;2024-01-25T00:29:45;102142.91;;;11.63;58.71
64889;BME280;51386;53.082;8.816;2024-01-25T00:32:14;102144.75;;;11.62;58.42
64889;BME280;51386;53.082;8.816;2024-01-25T00:34:42;102143.75;;;11.63;58.70
64889;BME280;51386;53.082;8.816;2024-01-25T00:37:12;102142.78;;;11.64;58.43
64889;BME280;51386;53.082;8.816;2024-01-25T00:39:40;102156.09;;;11.63;58.62
64889;BME280;51386;53.082;8.816;2024-01-25T00:42:13;102145.88;;;11.60;58.64
64889;BME280;51386;53.082;8.816;2024-01-25T00:44:42;102147.00;;;11.57;58.60
64889;BME280;51386;53.082;8.816;2024-01-25T00:47:11;102154.50;;;11.52;58.63
64889;BME280;51386;53.082;8.816;2024-01-25T00:49:40;102142.88;;;11.45;58.93
64889;BME280;51386;53.082;8.816;2024-01-25T00:52:10;102140.97;;;11.37;59.15
64889;BME280;51386;53.082;8.816;2024-01-25T00:54:39;102142.34;;;11.32;59.14
64889;BME280;51386;53.082;8.816;2024-01-25T00:57:08;102141.97;;;11.27;59.10
64889;BME280;51386;53.082;8.816;2024-01-25T00:59:37;102144.22;;;11.22;59.25
64889;BME280;51386;53.082;8.816;2024-01-25T01:02:12;102137.72;;;11.16;59.41
64889;BME280;51386;53.082;8.816;2024-01-25T01:04:41;102146.72;;;11.14;59.73
64889;BME280;51386;53.082;8.816;2024-01-25T01:07:15;102158.81;;;11.07;59.64
64889;BME280;51386;53.082;8.816;2024-01-25T01:09:44;102150.34;;;11.03;60.00
64889;BME280;51386;53.082;8.816;2024-01-25T01:12:12;102165.63;;;11.00;60.05
64889;BME280;51386;53.082;8.816;2024-01-25T01:14:42;102164.25;;;10.96;59.99
64889;BME280;51386;53.082;8.816;2024-01-25T01:17:10;102166.06;;;10.95;60.34
64889;BME280;51386;53.082;8.816;2024-01-25T01:19:38;102161.63;;;10.96;60.18
64889;BME280;51386;53.082;8.816;2024-01-25T01:22:07;102170.06;;;10.99;60.23
64889;BME280;51386;53.082;8.816;2024-01-25T01:24:36;102172.41;;;11.02;60.22
64889;BME280;51386;53.082;8.816;2024-01-25T01:27:04;102175.75;;;11.04;60.38
64889;BME280;51386;53.082;8.816;2024-01-25T01:29:32;102177.41;;;11.05;60.30
64889;BME280;51386;53.082;8.816;2024-01-25T01:32:01;102183.38;;;11.07;60.33
64889;BME280;51386;53.082;8.816;2024-01-25T01:34:30;102175.47;;;11.07;60.26
64889;BME280;51386;53.082;8.816;2024-01-25T01:36:59;102187.94;;;11.05;60.14
64889;BME280;51386;53.082;8.816;2024-01-25T01:39:27;102184.75;;;11.02;60.28
64889;BME280;51386;53.082;8.816;2024-01-25T01:41:56;102186.03;;;10.98;60.65
64889;BME280;51386;53.082;8.816;2024-01-25T01:44:25;102189.88;;;10.94;60.66
64889;BME280;51386;53.082;8.816;2024-01-25T01:46:53;102190.19;;;10.91;60.90
64889;BME280;51386;53.082;8.816;2024-01-25T01:49:23;102193.09;;;10.87;60.86
64889;BME280;51386;53.082;8.816;2024-01-25T01:51:52;102201.28;;;10.84;61.10
64889;BME280;51386;53.082;8.816;2024-01-25T01:54:21;102199.63;;;10.83;61.00
64889;BME280;51386;53.082;8.816;2024-01-25T01:56:49;102197.94;;;10.82;61.00
64889;BME280;51386;53.082;8.816;2024-01-25T01:59:18;102197.94;;;10.82;61.14
64889;BME280;51386;53.082;8.816;2024-01-25T02:01:47;102211.28;;;10.81;61.27
64889;BME280;51386;53.082;8.816;2024-01-25T02:04:15;102218.34;;;10.80;61.35
64889;BME280;51386;53.082;8.816;2024-01-25T02:06:44;102218.34;;;10.80;61.40
64889;BME280;51386;53.082;8.816;2024-01-25T02:09:14;102220.97;;;10.80;61.39
64889;BME280;51386;53.082;8.816;2024-01-25T02:11:42;102223.44;;;10.82;61.46
64889;BME280;51386;53.082;8.816;2024-01-25T02:14:11;102213.75;;;10.82;61.41
64889;BME280;51386;53.082;8.816;2024-01-25T02:16:41;102207.66;;;10.82;61.36
64889;BME280;51386;53.082;8.816;2024-01-25T02:19:13;102202.38;;;10.82;61.59
64889;BME280;51386;53.082;8.816;2024-01-25T02:21:41;102210.97;;;10.84;61.57
64889;BME280;51386;53.082;8.816;2024-01-25T02:24:10;102213.47;;;10.85;61.54
64889;BME280;51386;53.082;8.816;2024-01-25T02:26:38;102218.75;;;10.85;61.34
64889;BME280;51386;53.082;8.816;2024-01-25T02:29:07;102224.13;;;10.84;61.63
64889;BME280;51386;53.082;8.816;2024-01-25T02:31:37;102227.59;;;10.84;61.61
64889;BME280;51386;53.082;8.816;2024-01-25T02:34:06;102215.53;;;10.82;61.63
64889;BME280;51386;53.082;8.816;2024-01-25T02:36:34;102229.00;;;10.79;61.67
64889;BME280;51386;53.082;8.816;2024-01-25T02:39:03;102229.28;;;10.76;61.85
64889;BME280;51386;53.082;8.816;2024-01-25T02:41:32;102228.72;;;10.72;61.76
64889;BME280;51386;53.082;8.816;2024-01-25T02:44:01;102226.22;;;10.71;62.06
64889;BME280;51386;53.082;8.816;2024-01-25T02:46:29;102235.38;;;10.67;62.03
64889;BME280;51386;53.082;8.816;2024-01-25T02:48:58;102228.59;;;10.64;62.09
64889;BME280;51386;53.082;8.816;2024-01-25T02:51:26;102227.91;;;10.62;61.93
64889;BME280;51386;53.082;8.816;2024-01-25T02:53:55;102225.53;;;10.59;62.08
64889;BME280;51386;53.082;8.816;2024-01-25T02:56:24;102231.06;;;10.56;62.24
64889;BME280;51386;53.082;8.816;2024-01-25T02:58:52;102246.19;;;10.54;62.52
64889;BME280;51386;53.082;8.816;2024-01-25T03:01:20;102245.34;;;10.54;62.28
64889;BME280;51386;53.082;8.816;2024-01-25T03:03:49;102246.19;;;10.54;62.38
64889;BME280;51386;53.082;8.816;2024-01-25T03:06:17;102257.53;;;10.55;62.46
64889;BME280;51386;53.082;8.816;2024-01-25T03:08:46;102247.84;;;10.55;62.41
64889;BME280;51386;53.082;8.816;2024-01-25T03:11:14;102260.03;;;10.56;62.61
64889;BME280;51386;53.082;8.816;2024-01-25T03:13:43;102262.66;;;10.56;62.74
64889;BME280;51386;53.082;8.816;2024-01-25T03:16:11;102275.69;;;10.58;62.51
64889;BME280;51386;53.082;8.816;2024-01-25T03:18:39;102278.31;;;10.58;62.58
64889;BME280;51386;53.082;8.816;2024-01-25T03:21:08;102284.41;;;10.58;62.56
64889;BME280;51386;53.082;8.816;2024-01-25T03:23:38;102278.47;;;10.56;62.80
64889;BME280;51386;53.082;8.816;2024-01-25T03:26:07;102276.94;;;10.54;62.53
64889;BME280;51386;53.082;8.816;2024-01-25T03:28:35;102270.44;;;10.48;62.80
64889;BME280;51386;53.082;8.816;2024-01-25T03:31:04;102276.91;;;10.44;62.63
64889;BME280;51386;53.082;8.816;2024-01-25T03:33:32;102275.53;;;10.40;62.82
64889;BME280;51386;53.082;8.816;2024-01-25T03:36:05;102283.00;;;10.35;62.88
64889;BME280;51386;53.082;8.816;2024-01-25T03:38:34;102288.53;;;10.32;63.17
64889;BME280;51386;53.082;8.816;2024-01-25T03:41:02;102286.19;;;10.29;63.07
64889;BME280;51386;53.082;8.816;2024-01-25T03:43:31;102289.75;;;10.28;63.19
64889;BME280;51386;53.082;8.816;2024-01-25T03:46:09;102293.34;;;10.27;63.59
64889;BME280;51386;53.082;8.816;2024-01-25T03:48:38;102298.59;;;10.27;63.42
64889;BME280;51386;53.082;8.816;2024-01-25T03:51:07;102310.66;;;10.30;63.58
64889;BME280;51386;53.082;8.816;2024-01-25T03:53:36;102296.69;;;10.29;63.63
64889;BME280;51386;53.082;8.816;2024-01-25T03:56:10;102311.75;;;10.27;63.43
64889;BME280;51386;53.082;8.816;2024-01-25T03:58:40;102295.03;;;10.28;63.69
64889;BME280;51386;53.082;8.816;2024-01-25T04:01:08;102313.44;;;10.28;63.28
64889;BME280;51386;53.082;8.816;2024-01-25T04:03:37;102315.38;;;10.26;63.58
64889;BME280;51386;53.082;8.816;2024-01-25T04:06:06;102327.69;;;10.26;63.72
64889;BME280;51386;53.082;8.816;2024-01-25T04:08:35;102329.50;;;10.25;63.99
64889;BME280;51386;53.082;8.816;2024-01-25T04:11:03;102335.44;;;10.27;63.77
64889;BME280;51386;53.082;8.816;2024-01-25T04:13:32;102334.34;;;10.30;64.00
64889;BME280;51386;53.082;8.816;2024-01-25T04:16:00;102333.41;;;10.31;64.03
64889;BME280;51386;53.082;8.816;2024-01-25T04:18:29;102330.63;;;10.32;64.11
64889;BME280;51386;53.082;8.816;2024-01-25T04:20:57;102331.59;;;10.31;64.10
64889;BME280;51386;53.082;8.816;2024-01-25T04:23:26;102325.66;;;10.29;64.23
64889;BME280;51386;53.082;8.816;2024-01-25T04:25:54;102337.97;;;10.29;64.10
64889;BME280;51386;53.082;8.816;2024-01-25T04:28:23;102338.09;;;10.27;64.23
64889;BME280;51386;53.082;8.816;2024-01-25T04:30:51;102350.97;;;10.30;64.08
64889;BME280;51386;53.082;8.816;2024-01-25T04:33:20;102349.75;;;10.34;64.14
64889;BME280;51386;53.082;8.816;2024-01-25T04:35:49;102359.47;;;10.34;64.26
64889;BME280;51386;53.082;8.816;2024-01-25T04:38:17;102352.50;;;10.33;64.28
64889;BME280;51386;53.082;8.816;2024-01-25T04:40:46;102352.66;;;10.31;63.96
64889;BME280;51386;53.082;8.816;2024-01-25T04:43:14;102355.28;;;10.31;64.15
64889;BME280;51386;53.082;8.816;2024-01-25T04:45:42;102356.25;;;10.30;64.31
64889;BME280;51386;53.082;8.816;2024-01-25T04:48:11;102357.22;;;10.29;64.32
64889;BME280;51386;53.082;8.816;2024-01-25T04:50:39;102352.22;;;10.26;64.21
64889;BME280;51386;53.082;8.816;2024-01-25T04:53:08;102346.13;;;10.26;64.50
64889;BME280;51386;53.082;8.816;2024-01-25T04:55:36;102353.47;;;10.22;64.31
64889;BME280;51386;53.082;8.816;2024-01-25T04:58:05;102345.81;;;10.19;64.50
64889;BME280;51386;53.082;8.816;2024-01-25T05:00:33;102350.38;;;10.17;64.58
64889;BME280;51386;53.082;8.816;2024-01-25T05:03:04;102349.66;;;10.15;64.36
64889;BME280;51386;53.082;8.816;2024-01-25T05:05:32;102349.66;;;10.15;64.68
64889;BME280;51386;53.082;8.816;2024-01-25T05:08:01;102362.13;;;10.13;64.77
64889;BME280;51386;53.082;8.816;2024-01-25T05:10:29;102355.22;;;10.12;64.70
64889;BME280;51386;53.082;8.816;2024-01-25T05:12:57;102358.75;;;10.11;64.93
64889;BME280;51386;53.082;8.816;2024-01-25T05:15:26;102355.44;;;10.09;65.07
64889;BME280;51386;53.082;8.816;2024-01-25T05:17:54;102352.25;;;10.05;64.77
64889;BME280;51386;53.082;8.816;2024-01-25T05:20:23;102345.16;;;10.06;64.90
64889;BME280;51386;53.082;8.816;2024-01-25T05:22:51;102349.47;;;10.07;65.11
64889;BME280;51386;53.082;8.816;2024-01-25T05:25:20;102343.22;;;10.08;64.93
64889;BME280;51386;53.082;8.816;2024-01-25T05:27:48;102345.16;;;10.06;64.77
64889;BME280;51386;53.082;8.816;2024-01-25T05:30:17;102339.91;;;10.06;64.91
64889;BME280;51386;53.082;8.816;2024-01-25T05:32:45;102345.44;;;10.03;64.90
64889;BME280;51386;53.082;8.816;2024-01-25T05:35:17;102352.91;;;9.98;64.86
64889;BME280;51386;53.082;8.816;2024-01-25T05:37:46;102350.25;;;9.98;65.33
64889;BME280;51386;53.082;8.816;2024-01-25T05:40:14;102356.22;;;10.00;65.34
64889;BME280;51386;53.082;8.816;2024-01-25T05:42:43;102362.88;;;10.04;65.32
64889;BME280;51386;53.082;8.816;2024-01-25T05:45:12;102367.88;;;10.07;65.56
64889;BME280;51386;53.082;8.816;2024-01-25T05:47:40;102365.94;;;10.09;65.26
64889;BME280;51386;53.082;8.816;2024-01-25T05:50:09;102383.41;;;10.10;65.71
64889;BME280;51386;53.082;8.816;2024-01-25T05:52:38;102376.25;;;10.12;65.66
64889;BME280;51386;53.082;8.816;2024-01-25T05:55:07;102368.91;;;10.15;65.49
64889;BME280;51386;53.082;8.816;2024-01-25T05:57:36;102384.31;;;10.20;65.41
64889;BME280;51386;53.082;8.816;2024-01-25T06:00:06;102383.78;;;10.26;64.83
64889;BME280;51386;53.082;8.816;2024-01-25T06:02:34;102390.44;;;10.30;65.31
64889;BME280;51386;53.082;8.816;2024-01-25T06:05:03;102389.22;;;10.34;65.26
64889;BME280;51386;53.082;8.816;2024-01-25T06:07:32;102392.69;;;10.35;65.32
64889;BME280;51386;53.082;8.816;2024-01-25T06:10:00;102404.91;;;10.36;65.24
64889;BME280;51386;53.082;8.816;2024-01-25T06:12:29;102388.97;;;10.37;65.25
64889;BME280;51386;53.082;8.816;2024-01-25T06:14:58;102397.44;;;10.41;65.08
64889;BME280;51386;53.082;8.816;2024-01-25T06:17:26;102400.63;;;10.44;65.25
64889;BME280;51386;53.082;8.816;2024-01-25T06:19:54;102400.63;;;10.44;65.04
64889;BME280;51386;53.082;8.816;2024-01-25T06:22:23;102392.03;;;10.42;65.06
64889;BME280;51386;53.082;8.816;2024-01-25T06:24:52;102392.28;;;10.39;64.97
64889;BME280;51386;53.082;8.816;2024-01-25T06:27:20;102395.91;;;10.38;65.15
64889;BME280;51386;53.082;8.816;2024-01-25T06:29:48;102404.63;;;10.39;65.35
64889;BME280;51386;53.082;8.816;2024-01-25T06:32:17;102408.53;;;10.44;65.09
64889;BME280;51386;53.082;8.816;2024-01-25T06:34:52;102411.28;;;10.43;65.17
64889;BME280;51386;53.082;8.816;2024-01-25T06:37:21;102416.31;;;10.46;65.21
64889;BME280;51386;53.082;8.816;2024-01-25T06:39:50;102411.84;;;10.46;65.11
64889;BME280;51386;53.082;8.816;2024-01-25T06:42:18;102422.38;;;10.46;64.95
64889;BME280;51386;53.082;8.816;2024-01-25T06:44:47;102427.63;;;10.46;65.09
64889;BME280;51386;53.082;8.816;2024-01-25T06:47:16;102426.84;;;10.46;65.06
64889;BME280;51386;53.082;8.816;2024-01-25T06:49:47;102439.25;;;10.44;64.92
64889;BME280;51386;53.082;8.816;2024-01-25T06:52:20;102442.75;;;10.44;65.09
64889;BME280;51386;53.082;8.816;2024-01-25T06:54:48;102453.41;;;10.43;64.95
64889;BME280;51386;53.082;8.816;2024-01-25T06:57:17;102456.75;;;10.45;64.93
64889;BME280;51386;53.082;8.816;2024-01-25T06:59:45;102454.25;;;10.43;65.05
64889;BME280;51386;53.082;8.816;2024-01-25T07:02:14;102470.84;;;10.44;65.10
64889;BME280;51386;53.082;8.816;2024-01-25T07:04:43;102476.97;;;10.44;65.00
64889;BME280;51386;53.082;8.816;2024-01-25T07:07:12;102483.06;;;10.45;65.07
64889;BME280;51386;53.082;8.816;2024-01-25T07:09:41;102483.66;;;10.48;65.00
64889;BME280;51386;53.082;8.816;2024-01-25T07:12:09;102473.94;;;10.49;64.76
64889;BME280;51386;53.082;8.816;2024-01-25T07:14:38;102477.25;;;10.51;64.80
64889;BME280;51386;53.082;8.816;2024-01-25T07:17:07;102479.78;;;10.52;64.90
64889;BME280;51386;53.082;8.816;2024-01-25T07:19:35;102483.38;;;10.51;64.85
64889;BME280;51386;53.082;8.816;2024-01-25T07:22:04;102493.06;;;10.51;65.14
64889;BME280;51386;53.082;8.816;2024-01-25T07:24:32;102503.47;;;10.52;64.93
64889;BME280;51386;53.082;8.816;2024-01-25T07:27:01;102500.69;;;10.54;64.82
64889;BME280;51386;53.082;8.816;2024-01-25T07:29:29;102507.50;;;10.56;64.76
64889;BME280;51386;53.082;8.816;2024-01-25T07:31:58;102506.41;;;10.59;64.79
64889;BME280;51386;53.082;8.816;2024-01-25T07:34:26;102513.34;;;10.60;64.66
64889;BME280;51386;53.082;8.816;2024-01-25T07:36:56;102517.53;;;10.62;64.79
64889;BME280;51386;53.082;8.816;2024-01-25T07:39:24;102519.19;;;10.63;64.71
64889;BME280;51386;53.082;8.816;2024-01-25T07:41:52;102503.38;;;10.63;64.68
64889;BME280;51386;53.082;8.816;2024-01-25T07:44:21;102503.38;;;10.63;64.58
64889;BME280;51386;53.082;8.816;2024-01-25T07:46:49;102513.91;;;10.63;64.63
64889;BME280;51386;53.082;8.816;2024-01-25T07:49:18;102511.97;;;10.65;64.59
64889;BME280;51386;53.082;8.816;2024-01-25T07:51:46;102516.16;;;10.68;64.75
64889;BME280;51386;53.082;8.816;2024-01-25T07:54:16;102509.78;;;10.70;64.68
64889;BME280;51386;53.082;8.816;2024-01-25T07:56:44;102520.06;;;10.73;64.63
64889;BME280;51386;53.082;8.816;2024-01-25T07:59:12;102518.28;;;10.74;64.54
64889;BME280;51386;53.082;8.816;2024-01-25T08:01:41;102509.53;;;10.73;64.47
64889;BME280;51386;53.082;8.816;2024-01-25T08:04:10;102515.75;;;10.72;64.46
64889;BME280;51386;53.082;8.816;2024-01-25T08:06:39;102517.69;;;10.70;64.56
64889;BME280;51386;53.082;8.816;2024-01-25T08:09:07;102526.69;;;10.68;64.54
64889;BME280;51386;53.082;8.816;2024-01-25T08:11:36;102531.09;;;10.67;64.54
64889;BME280;51386;53.082;8.816;2024-01-25T08:14:05;102540.44;;;10.71;64.62
64889;BME280;51386;53.082;8.816;2024-01-25T08:16:34;102542.53;;;10.77;64.59
64889;BME280;51386;53.082;8.816;2024-01-25T08:19:03;102546.59;;;10.81;64.29
64889;BME280;51386;53.082;8.816;2024-01-25T08:21:32;102547.00;;;10.86;64.47
64889;BME280;51386;53.082;8.816;2024-01-25T08:24:01;102545.91;;;10.89;64.28
64889;BME280;51386;53.082;8.816;2024-01-25T08:26:30;102545.66;;;10.92;64.16
64889;BME280;51386;53.082;8.816;2024-01-25T08:28:58;102548.72;;;10.97;64.25
64889;BME280;51386;53.082;8.816;2024-01-25T08:31:27;102554.56;;;11.01;64.10
64889;BME280;51386;53.082;8.816;2024-01-25T08:33:56;102537.66;;;11.03;63.92
64889;BME280;51386;53.082;8.816;2024-01-25T08:36:25;102534.06;;;11.04;63.81
64889;BME280;51386;53.082;8.816;2024-01-25T08:38:54;102537.41;;;11.06;63.88
64889;BME280;51386;53.082;8.816;2024-01-25T08:41:22;102532.38;;;11.03;63.71
64889;BME280;51386;53.082;8.816;2024-01-25T08:44:10;102533.22;;;11.04;63.72
64889;BME280;51386;53.082;8.816;2024-01-25T08:46:59;102539.19;;;11.06;63.75
64889;BME280;51386;53.082;8.816;2024-01-25T08:49:30;102541.56;;;11.09;63.66
64889;BME280;51386;53.082;8.816;2024-01-25T08:51:59;102536.88;;;11.12;63.73
64889;BME280;51386;53.082;8.816;2024-01-25T08:54:27;102550.75;;;11.14;63.63
64889;BME280;51386;53.082;8.816;2024-01-25T08:56:56;102543.53;;;11.16;63.55
64889;BME280;51386;53.082;8.816;2024-01-25T08:59:26;102544.22;;;11.18;63.62
64889;BME280;51386;53.082;8.816;2024-01-25T09:02:00;102549.34;;;11.20;63.50
64889;BME280;51386;53.082;8.816;2024-01-25T09:04:36;102548.25;;;11.22;63.43
64889;BME280;51386;53.082;8.816;2024-01-25T09:07:09;102554.13;;;11.26;63.22
64889;BME280;51386;53.082;8.816;2024-01-25T09:09:37;102554.53;;;11.31;63.09
64889;BME280;51386;53.082;8.816;2024-01-25T09:12:06;102558.56;;;11.35;63.04
64889;BME280;51386;53.082;8.816;2024-01-25T09:14:39;102560.94;;;11.38;62.69
64889;BME280;51386;53.082;8.816;2024-01-25T09:17:13;102561.91;;;11.37;62.71
64889;BME280;51386;53.082;8.816;2024-01-25T09:19:51;102561.38;;;11.43;62.81
64889;BME280;51386;53.082;8.816;2024-01-25T09:22:20;102573.75;;;11.52;62.79
64889;BME280;51386;53.082;8.816;2024-01-25T09:24:48;102576.81;;;11.57;62.18
64889;BME280;51386;53.082;8.816;2024-01-25T09:27:17;102577.50;;;11.59;62.26
64889;BME280;51386;53.082;8.816;2024-01-25T09:29:46;102589.72;;;11.60;61.80
64889;BME280;51386;53.082;8.816;2024-01-25T09:32:15;102584.19;;;11.63;62.11
64889;BME280;51386;53.082;8.816;2024-01-25T09:34:43;102594.22;;;11.69;62.29
64889;BME280;51386;53.082;8.816;2024-01-25T09:37:12;102595.34;;;11.76;61.89
64889;BME280;51386;53.082;8.816;2024-01-25T09:39:41;102598.13;;;11.84;61.77
64889;BME280;51386;53.082;8.816;2024-01-25T09:42:10;102599.66;;;11.96;61.54
64889;BME280;51386;53.082;8.816;2024-01-25T09:44:40;102609.13;;;12.08;61.34
64889;BME280;51386;53.082;8.816;2024-01-25T09:47:11;102614.56;;;12.16;60.90
64889;BME280;51386;53.082;8.816;2024-01-25T09:49:41;102607.34;;;12.18;60.91
64889;BME280;51386;53.082;8.816;2024-01-25T09:52:12;102617.19;;;12.16;60.71
64889;BME280;51386;53.082;8.816;2024-01-25T09:54:41;102614.56;;;12.16;60.28
64889;BME280;51386;53.082;8.816;2024-01-25T09:57:15;102606.22;;;12.11;60.33
64889;BME280;51386;53.082;8.816;2024-01-25T09:59:45;102614.13;;;12.11;60.34
64889;BME280;51386;53.082;8.816;2024-01-25T10:02:14;102615.78;;;12.12;60.21
64889;BME280;51386;53.082;8.816;2024-01-25T10:04:49;102612.59;;;12.09;60.28
64889;BME280;51386;53.082;8.816;2024-01-25T10:07:38;102618.16;;;12.06;60.40
64889;BME280;51386;53.082;8.816;2024-01-25T10:10:09;102627.88;;;12.05;60.33
64889;BME280;51386;53.082;8.816;2024-01-25T10:12:42;102624.53;;;12.03;60.27
64889;BME280;51386;53.082;8.816;2024-01-25T10:15:11;102622.88;;;12.02;60.40
64889;BME280;51386;53.082;8.816;2024-01-25T10:17:40;102620.69;;;12.07;60.30
64889;BME280;51386;53.082;8.816;2024-01-25T10:20:14;102641.63;;;12.09;60.24
64889;BME280;51386;53.082;8.816;2024-01-25T10:22:43;102636.50;;;12.07;59.91
64889;BME280;51386;53.082;8.816;2024-01-25T10:25:13;102649.28;;;12.02;59.97
64889;BME280;51386;53.082;8.816;2024-01-25T10:27:45;102651.06;;;12.02;60.03
64889;BME280;51386;53.082;8.816;2024-01-25T10:30:15;102656.22;;;12.03;60.21
64889;BME280;51386;53.082;8.816;2024-01-25T10:32:50;102652.88;;;12.01;60.01
64889;BME280;51386;53.082;8.816;2024-01-25T10:35:20;102655.50;;;12.01;60.16
64889;BME280;51386;53.082;8.816;2024-01-25T10:37:52;102667.88;;;12.10;59.96
64889;BME280;51386;53.082;8.816;2024-01-25T10:40:22;102658.88;;;12.13;60.10
64889;BME280;51386;53.082;8.816;2024-01-25T10:42:51;102665.13;;;12.12;59.94
64889;BME280;51386;53.082;8.816;2024-01-25T10:45:20;102659.00;;;12.11;59.63
64889;BME280;51386;53.082;8.816;2024-01-25T10:47:49;102653.72;;;12.11;60.13
64889;BME280;51386;53.082;8.816;2024-01-25T10:50:17;102649.72;;;12.17;60.13
64889;BME280;51386;53.082;8.816;2024-01-25T10:52:47;102648.72;;;12.18;59.64
64889;BME280;51386;53.082;8.816;2024-01-25T10:55:17;102645.94;;;12.19;59.75
64889;BME280;51386;53.082;8.816;2024-01-25T10:57:46;102639.28;;;12.25;59.67
64889;BME280;51386;53.082;8.816;2024-01-25T11:00:16;102636.22;;;12.30;59.48
64889;BME280;51386;53.082;8.816;2024-01-25T11:02:45;102630.41;;;12.36;59.51
64889;BME280;51386;53.082;8.816;2024-01-25T11:05:18;102636.50;;;12.46;59.27
64889;BME280;51386;53.082;8.816;2024-01-25T11:07:50;102641.38;;;12.60;59.29
64889;BME280;51386;53.082;8.816;2024-01-25T11:10:20;102634.56;;;12.67;58.88
64889;BME280;51386;53.082;8.816;2024-01-25T11:13:00;102635.66;;;12.74;58.99
64889;BME280;51386;53.082;8.816;2024-01-25T11:15:34;102630.88;;;12.87;58.57
64889;BME280;51386;53.082;8.816;2024-01-25T11:18:09;102623.91;;;12.96;58.21
64889;BME280;51386;53.082;8.816;2024-01-25T11:21:28;102611.94;;;13.01;58.14
64889;BME280;51386;53.082;8.816;2024-01-25T11:24:03;102616.38;;;13.10;57.85
64889;BME280;51386;53.082;8.816;2024-01-25T11:30:54;102603.50;;;13.25;57.58
64889;BME280;51386;53.082;8.816;2024-01-25T11:35:29;102602.16;;;13.21;57.03
64889;BME280;51386;53.082;8.816;2024-01-25T11:38:04;102596.34;;;12.98;57.25
64889;BME280;51386;53.082;8.816;2024-01-25T11:40:38;102597.09;;;12.90;57.63
64889;BME280;51386;53.082;8.816;2024-01-25T11:43:06;102603.38;;;12.80;57.42
64889;BME280;51386;53.082;8.816;2024-01-25T11:45:39;102599.22;;;12.68;57.47
64889;BME280;51386;53.082;8.816;2024-01-25T11:48:11;102602.84;;;12.67;57.99
64889;BME280;51386;53.082;8.816;2024-01-25T11:50:39;102601.00;;;12.77;58.20
64889;BME280;51386;53.082;8.816;2024-01-25T11:53:08;102601.06;;;13.04;57.73
64889;BME280;51386;53.082;8.816;2024-01-25T11:55:44;102603.31;;;13.63;58.04
64889;BME280;51386;53.082;8.816;2024-01-25T11:58:28;102601.88;;;14.31;57.10
64889;BME280;51386;53.082;8.816;2024-01-25T12:01:03;102598.44;;;14.82;56.11
64889;BME280;51386;53.082;8.816;2024-01-25T12:03:36;102592.72;;;14.95;54.04
64889;BME280;51386;53.082;8.816;2024-01-25T12:06:06;102583.47;;;14.99;54.14
64889;BME280;51386;53.082;8.816;2024-01-25T12:08:37;102584.19;;;15.17;53.80
64889;BME280;51386;53.082;8.816;2024-01-25T12:11:10;102581.00;;;15.39;53.75
64889;BME280;51386;53.082;8.816;2024-01-25T12:13:41;102578.94;;;15.67;52.61
64889;BME280;51386;53.082;8.816;2024-01-25T12:16:11;102584.09;;;15.76;52.24
64889;BME280;51386;53.082;8.816;2024-01-25T12:18:43;102575.81;;;15.71;51.83
64889;BME280;51386;53.082;8.816;2024-01-25T12:21:13;102574.81;;;15.72;51.41
64889;BME280;51386;53.082;8.816;2024-01-25T12:23:42;102585.13;;;15.83;51.27
64889;BME280;51386;53.082;8.816;2024-01-25T12:26:11;102588.47;;;15.93;50.72
64889;BME280;51386;53.082;8.816;2024-01-25T12:28:41;102583.81;;;15.95;50.04
64889;BME280;51386;53.082;8.816;2024-01-25T12:31:09;102597.44;;;15.92;49.90
64889;BME280;51386;53.082;8.816;2024-01-25T12:33:38;102595.06;;;15.81;49.11
64889;BME280;51386;53.082;8.816;2024-01-25T12:36:09;102600.00;;;15.60;49.33
64889;BME280;51386;53.082;8.816;2024-01-25T12:38:38;102598.91;;;15.37;49.63
64889;BME280;51386;53.082;8.816;2024-01-25T12:41:07;102599.16;;;15.18;50.20
64889;BME280;51386;53.082;8.816;2024-01-25T12:43:36;102593.28;;;15.06;50.06
64889;BME280;51386;53.082;8.816;2024-01-25T12:46:05;102588.75;;;14.99;50.45
64889;BME280;51386;53.082;8.816;2024-01-25T12:48:52;102593.34;;;14.88;50.57
64889;BME280;51386;53.082;8.816;2024-01-25T12:51:25;102587.09;;;14.98;51.06
64889;BME280;51386;53.082;8.816;2024-01-25T12:53:54;102594.78;;;15.09;51.01
64889;BME280;51386;53.082;8.816;2024-01-25T12:56:23;102604.16;;;15.29;50.83
64889;BME280;51386;53.082;8.816;2024-01-25T12:58:51;102596.53;;;15.26;50.20
64889;BME280;51386;53.082;8.816;2024-01-25T13:01:20;102593.16;;;15.16;50.41
64889;BME280;51386;53.082;8.816;2024-01-25T13:03:49;102590.88;;;15.29;50.53
64889;BME280;51386;53.082;8.816;2024-01-25T13:06:18;102583.63;;;15.39;50.32
64889;BME280;51386;53.082;8.816;2024-01-25T13:08:46;102585.94;;;15.26;50.02